sensor_id;sensor_type;location;lat;lon;timestamp;P1;durP1;ratioP1;P2;durP2;ratioP2
43835;SDS011;39345;43.964;25.340;2023-11-21T00:01:34;8.45;;;5.70;;
43835;SDS011;39345;43.964;25.340;2023-11-21T00:04:02;12.73;;;6.40;;
43835;SDS011;39345;43.964;25.340;2023-11-21T00:06:30;10.05;;;6.13;;
43835;SDS011;39345;43.964;25.340;2023-11-21T00:08:58;11.05;;;6.25;;
43835;SDS011;39345;43.964;25.340;2023-11-21T00:11:25;13.27;;;5.82;;
43835;SDS011;39345;43.964;25.340;2023-11-21T00:13:53;9.23;;;6.10;;
43835;SDS011;39345;43.964;25.340;2023-11-21T00:16:20;9.93;;;5.55;;
43835;SDS011;39345;43.964;25.340;2023-11-21T00:18:49;10.18;;;5.90;;
43835;SDS011;39345;43.964;25.340;2023-11-21T00:21:17;10.63;;;6.05;;
43835;SDS011;39345;43.964;25.340;2023-11-21T00:23:45;9.05;;;6.28;;
43835;SDS011;39345;43.964;25.340;2023-11-21T00:26:12;9.27;;;6.05;;
43835;SDS011;39345;43.964;25.340;2023-11-21T00:28:45;8.75;;;6.25;;
43835;SDS011;39345;43.964;25.340;2023-11-21T00:31:13;8.63;;;5.57;;
43835;SDS011;39345;43.964;25.340;2023-11-21T00:33:40;8.70;;;5.35;;
43835;SDS011;39345;43.964;25.340;2023-11-21T00:36:08;11.15;;;5.88;;
43835;SDS011;39345;43.964;25.340;2023-11-21T00:38:36;7.70;;;5.78;;
43835;SDS011;39345;43.964;25.340;2023-11-21T00:41:06;7.80;;;5.32;;
43835;SDS011;39345;43.964;25.340;2023-11-21T00:43:34;9.68;;;5.78;;
43835;SDS011;39345;43.964;25.340;2023-11-21T00:46:05;9.45;;;5.18;;
43835;SDS011;39345;43.964;25.340;2023-11-21T00:48:36;8.68;;;4.90;;
43835;SDS011;39345;43.964;25.340;2023-11-21T00:51:03;8.13;;;5.47;;
43835;SDS011;39345;43.964;25.340;2023-11-21T00:53:32;7.97;;;4.70;;
43835;SDS011;39345;43.964;25.340;2023-11-21T00:56:00;8.18;;;4.90;;
43835;SDS011;39345;43.964;25.340;2023-11-21T00:58:27;7.72;;;4.90;;
43835;SDS011;39345;43.964;25.340;2023-11-21T01:00:56;8.57;;;5.20;;
43835;SDS011;39345;43.964;25.340;2023-11-21T01:03:24;7.60;;;5.13;;
43835;SDS011;39345;43.964;25.340;2023-11-21T01:05:52;8.45;;;5.00;;
43835;SDS011;39345;43.964;25.340;2023-11-21T01:08:20;8.75;;;4.78;;
43835;SDS011;39345;43.964;25.340;2023-11-21T01:10:47;10.43;;;4.72;;
43835;SDS011;39345;43.964;25.340;2023-11-21T01:13:15;7.07;;;4.25;;
43835;SDS011;39345;43.964;25.340;2023-11-21T01:15:43;8.80;;;4.90;;
43835;SDS011;39345;43.964;25.340;2023-11-21T01:18:10;6.80;;;4.50;;
43835;SDS011;39345;43.964;25.340;2023-11-21T01:20:38;6.95;;;4.70;;
43835;SDS011;39345;43.964;25.340;2023-11-21T01:23:06;7.63;;;4.80;;
43835;SDS011;39345;43.964;25.340;2023-11-21T01:25:34;7.30;;;4.32;;
43835;SDS011;39345;43.964;25.340;2023-11-21T01:28:02;6.65;;;4.38;;
43835;SDS011;39345;43.964;25.340;2023-11-21T01:30:30;7.60;;;4.18;;
43835;SDS011;39345;43.964;25.340;2023-11-21T01:32:59;6.80;;;4.22;;
43835;SDS011;39345;43.964;25.340;2023-11-21T01:35:26;7.78;;;4.20;;
43835;SDS011;39345;43.964;25.340;2023-11-21T01:37:54;6.85;;;4.13;;
43835;SDS011;39345;43.964;25.340;2023-11-21T01:40:21;8.93;;;4.00;;
43835;SDS011;39345;43.964;25.340;2023-11-21T01:42:49;6.90;;;3.90;;
43835;SDS011;39345;43.964;25.340;2023-11-21T01:45:17;5.90;;;3.70;;
43835;SDS011;39345;43.964;25.340;2023-11-21T01:47:45;7.88;;;4.22;;
43835;SDS011;39345;43.964;25.340;2023-11-21T01:50:14;5.65;;;4.03;;
43835;SDS011;39345;43.964;25.340;2023-11-21T01:52:46;4.90;;;3.60;;
43835;SDS011;39345;43.964;25.340;2023-11-21T01:55:16;6.60;;;4.05;;
43835;SDS011;39345;43.964;25.340;2023-11-21T01:57:55;6.63;;;3.92;;
43835;SDS011;39345;43.964;25.340;2023-11-21T02:00:24;6.53;;;3.72;;
43835;SDS011;39345;43.964;25.340;2023-11-21T02:02:55;6.75;;;4.28;;
43835;SDS011;39345;43.964;25.340;2023-11-21T02:05:23;6.30;;;3.83;;
43835;SDS011;39345;43.964;25.340;2023-11-21T02:07:52;7.18;;;4.07;;
43835;SDS011;39345;43.964;25.340;2023-11-21T02:10:20;5.90;;;4.40;;
43835;SDS011;39345;43.964;25.340;2023-11-21T02:12:51;6.45;;;3.67;;
43835;SDS011;39345;43.964;25.340;2023-11-21T02:15:20;8.57;;;3.88;;
43835;SDS011;39345;43.964;25.340;2023-11-21T02:17:48;10.82;;;5.28;;
43835;SDS011;39345;43.964;25.340;2023-11-21T02:20:21;6.70;;;4.10;;
43835;SDS011;39345;43.964;25.340;2023-11-21T02:22:52;6.50;;;3.70;;
43835;SDS011;39345;43.964;25.340;2023-11-21T02:25:25;8.15;;;4.40;;
43835;SDS011;39345;43.964;25.340;2023-11-21T02:27:54;6.45;;;3.92;;
43835;SDS011;39345;43.964;25.340;2023-11-21T02:30:22;7.10;;;4.35;;
43835;SDS011;39345;43.964;25.340;2023-11-21T02:32:51;7.05;;;3.85;;
43835;SDS011;39345;43.964;25.340;2023-11-21T02:35:23;6.10;;;3.70;;
43835;SDS011;39345;43.964;25.340;2023-11-21T02:37:52;8.60;;;3.72;;
43835;SDS011;39345;43.964;25.340;2023-11-21T02:40:20;5.95;;;3.85;;
43835;SDS011;39345;43.964;25.340;2023-11-21T02:42:48;8.95;;;4.25;;
43835;SDS011;39345;43.964;25.340;2023-11-21T02:45:18;6.88;;;4.00;;
43835;SDS011;39345;43.964;25.340;2023-11-21T02:47:47;7.03;;;3.70;;
43835;SDS011;39345;43.964;25.340;2023-11-21T02:50:16;6.93;;;3.78;;
43835;SDS011;39345;43.964;25.340;2023-11-21T02:52:45;6.95;;;4.20;;
43835;SDS011;39345;43.964;25.340;2023-11-21T02:55:13;5.70;;;3.85;;
43835;SDS011;39345;43.964;25.340;2023-11-21T02:57:41;4.40;;;3.35;;
43835;SDS011;39345;43.964;25.340;2023-11-21T03:00:09;6.90;;;3.88;;
43835;SDS011;39345;43.964;25.340;2023-11-21T03:02:40;6.38;;;3.97;;
43835;SDS011;39345;43.964;25.340;2023-11-21T03:05:09;7.65;;;3.80;;
43835;SDS011;39345;43.964;25.340;2023-11-21T03:07:37;4.93;;;3.42;;
43835;SDS011;39345;43.964;25.340;2023-11-21T03:10:05;5.45;;;3.72;;
43835;SDS011;39345;43.964;25.340;2023-11-21T03:12:36;6.60;;;3.75;;
43835;SDS011;39345;43.964;25.340;2023-11-21T03:15:07;5.10;;;3.40;;
43835;SDS011;39345;43.964;25.340;2023-11-21T03:17:38;5.57;;;3.88;;
43835;SDS011;39345;43.964;25.340;2023-11-21T03:20:05;7.30;;;3.90;;
43835;SDS011;39345;43.964;25.340;2023-11-21T03:22:37;7.25;;;4.07;;
43835;SDS011;39345;43.964;25.340;2023-11-21T03:25:05;8.10;;;3.63;;
43835;SDS011;39345;43.964;25.340;2023-11-21T03:27:37;7.45;;;3.92;;
43835;SDS011;39345;43.964;25.340;2023-11-21T03:30:07;6.93;;;3.53;;
43835;SDS011;39345;43.964;25.340;2023-11-21T03:32:36;6.22;;;3.63;;
43835;SDS011;39345;43.964;25.340;2023-11-21T03:35:03;7.90;;;3.90;;
43835;SDS011;39345;43.964;25.340;2023-11-21T03:37:33;5.85;;;3.80;;
43835;SDS011;39345;43.964;25.340;2023-11-21T03:40:00;6.93;;;3.83;;
43835;SDS011;39345;43.964;25.340;2023-11-21T03:42:30;6.28;;;3.83;;
43835;SDS011;39345;43.964;25.340;2023-11-21T03:44:58;7.03;;;3.97;;
43835;SDS011;39345;43.964;25.340;2023-11-21T03:47:26;9.52;;;4.05;;
43835;SDS011;39345;43.964;25.340;2023-11-21T03:49:53;8.23;;;4.30;;
43835;SDS011;39345;43.964;25.340;2023-11-21T03:52:21;6.63;;;4.30;;
43835;SDS011;39345;43.964;25.340;2023-11-21T03:54:49;8.10;;;5.07;;
43835;SDS011;39345;43.964;25.340;2023-11-21T03:57:16;9.15;;;3.80;;
43835;SDS011;39345;43.964;25.340;2023-11-21T03:59:44;7.13;;;3.78;;
43835;SDS011;39345;43.964;25.340;2023-11-21T04:02:11;6.28;;;4.13;;
43835;SDS011;39345;43.964;25.340;2023-11-21T04:04:41;6.10;;;4.20;;
43835;SDS011;39345;43.964;25.340;2023-11-21T04:07:09;8.80;;;4.40;;
43835;SDS011;39345;43.964;25.340;2023-11-21T04:09:37;5.90;;;3.88;;
43835;SDS011;39345;43.964;25.340;2023-11-21T04:12:05;6.43;;;3.83;;
43835;SDS011;39345;43.964;25.340;2023-11-21T04:14:32;9.32;;;4.18;;
43835;SDS011;39345;43.964;25.340;2023-11-21T04:17:00;6.97;;;3.38;;
43835;SDS011;39345;43.964;25.340;2023-11-21T04:19:27;8.43;;;3.90;;
43835;SDS011;39345;43.964;25.340;2023-11-21T04:21:55;7.80;;;3.78;;
43835;SDS011;39345;43.964;25.340;2023-11-21T04:24:22;6.00;;;3.58;;
43835;SDS011;39345;43.964;25.340;2023-11-21T04:26:50;5.97;;;3.53;;
43835;SDS011;39345;43.964;25.340;2023-11-21T04:29:17;6.35;;;3.35;;
43835;SDS011;39345;43.964;25.340;2023-11-21T04:31:45;6.65;;;3.70;;
43835;SDS011;39345;43.964;25.340;2023-11-21T04:34:12;6.30;;;3.92;;
43835;SDS011;39345;43.964;25.340;2023-11-21T04:36:40;7.75;;;3.88;;
43835;SDS011;39345;43.964;25.340;2023-11-21T04:39:07;6.22;;;3.50;;
43835;SDS011;39345;43.964;25.340;2023-11-21T04:41:35;8.18;;;3.90;;
43835;SDS011;39345;43.964;25.340;2023-11-21T04:44:05;6.22;;;4.05;;
43835;SDS011;39345;43.964;25.340;2023-11-21T04:46:33;6.53;;;3.72;;
43835;SDS011;39345;43.964;25.340;2023-11-21T04:49:01;6.85;;;4.18;;
43835;SDS011;39345;43.964;25.340;2023-11-21T04:51:28;9.32;;;4.75;;
43835;SDS011;39345;43.964;25.340;2023-11-21T04:53:56;7.45;;;4.60;;
43835;SDS011;39345;43.964;25.340;2023-11-21T04:56:23;6.72;;;4.60;;
43835;SDS011;39345;43.964;25.340;2023-11-21T04:58:51;7.25;;;4.75;;
43835;SDS011;39345;43.964;25.340;2023-11-21T05:01:18;7.13;;;4.10;;
43835;SDS011;39345;43.964;25.340;2023-11-21T05:03:46;8.52;;;4.40;;
43835;SDS011;39345;43.964;25.340;2023-11-21T05:06:15;8.38;;;4.43;;
43835;SDS011;39345;43.964;25.340;2023-11-21T05:08:43;9.07;;;4.38;;
43835;SDS011;39345;43.964;25.340;2023-11-21T05:11:10;11.05;;;4.60;;
43835;SDS011;39345;43.964;25.340;2023-11-21T05:13:38;9.75;;;4.57;;
43835;SDS011;39345;43.964;25.340;2023-11-21T05:16:06;11.13;;;4.13;;
43835;SDS011;39345;43.964;25.340;2023-11-21T05:18:34;10.50;;;5.53;;
43835;SDS011;39345;43.964;25.340;2023-11-21T05:21:01;13.45;;;6.35;;
43835;SDS011;39345;43.964;25.340;2023-11-21T05:23:29;16.15;;;7.97;;
43835;SDS011;39345;43.964;25.340;2023-11-21T05:25:56;19.30;;;8.95;;
43835;SDS011;39345;43.964;25.340;2023-11-21T05:28:24;21.10;;;8.95;;
43835;SDS011;39345;43.964;25.340;2023-11-21T05:30:52;16.10;;;8.63;;
43835;SDS011;39345;43.964;25.340;2023-11-21T05:33:40;20.77;;;10.13;;
43835;SDS011;39345;43.964;25.340;2023-11-21T05:36:07;18.55;;;8.70;;
43835;SDS011;39345;43.964;25.340;2023-11-21T05:38:36;19.02;;;8.90;;
43835;SDS011;39345;43.964;25.340;2023-11-21T05:41:04;16.08;;;8.75;;
43835;SDS011;39345;43.964;25.340;2023-11-21T05:43:31;18.80;;;9.23;;
43835;SDS011;39345;43.964;25.340;2023-11-21T05:46:02;18.45;;;9.40;;
43835;SDS011;39345;43.964;25.340;2023-11-21T05:48:29;16.65;;;8.63;;
43835;SDS011;39345;43.964;25.340;2023-11-21T05:50:58;21.38;;;9.95;;
43835;SDS011;39345;43.964;25.340;2023-11-21T05:53:25;21.30;;;10.70;;
43835;SDS011;39345;43.964;25.340;2023-11-21T05:55:53;21.85;;;9.48;;
43835;SDS011;39345;43.964;25.340;2023-11-21T05:58:20;16.90;;;10.00;;
43835;SDS011;39345;43.964;25.340;2023-11-21T06:00:48;22.80;;;10.27;;
43835;SDS011;39345;43.964;25.340;2023-11-21T06:03:15;23.80;;;11.27;;
43835;SDS011;39345;43.964;25.340;2023-11-21T06:05:44;33.72;;;14.73;;
43835;SDS011;39345;43.964;25.340;2023-11-21T06:08:11;18.23;;;10.10;;
43835;SDS011;39345;43.964;25.340;2023-11-21T06:10:39;17.77;;;10.32;;
43835;SDS011;39345;43.964;25.340;2023-11-21T06:13:06;14.43;;;8.13;;
43835;SDS011;39345;43.964;25.340;2023-11-21T06:15:34;10.95;;;7.60;;
43835;SDS011;39345;43.964;25.340;2023-11-21T06:18:02;13.90;;;8.15;;
43835;SDS011;39345;43.964;25.340;2023-11-21T06:20:30;16.10;;;8.68;;
43835;SDS011;39345;43.964;25.340;2023-11-21T06:22:57;15.95;;;8.00;;
43835;SDS011;39345;43.964;25.340;2023-11-21T06:25:25;12.60;;;6.57;;
43835;SDS011;39345;43.964;25.340;2023-11-21T06:27:52;9.27;;;4.80;;
43835;SDS011;39345;43.964;25.340;2023-11-21T06:30:20;8.23;;;4.70;;
43835;SDS011;39345;43.964;25.340;2023-11-21T06:32:48;9.70;;;4.57;;
43835;SDS011;39345;43.964;25.340;2023-11-21T06:35:17;9.27;;;3.72;;
43835;SDS011;39345;43.964;25.340;2023-11-21T06:37:45;5.40;;;3.33;;
43835;SDS011;39345;43.964;25.340;2023-11-21T06:40:16;8.27;;;3.50;;
43835;SDS011;39345;43.964;25.340;2023-11-21T06:42:47;6.63;;;3.50;;
43835;SDS011;39345;43.964;25.340;2023-11-21T06:45:16;7.05;;;3.13;;
43835;SDS011;39345;43.964;25.340;2023-11-21T06:47:44;5.80;;;3.30;;
43835;SDS011;39345;43.964;25.340;2023-11-21T06:50:12;7.22;;;3.50;;
43835;SDS011;39345;43.964;25.340;2023-11-21T06:52:40;6.80;;;3.83;;
43835;SDS011;39345;43.964;25.340;2023-11-21T06:55:08;9.40;;;4.18;;
43835;SDS011;39345;43.964;25.340;2023-11-21T06:57:36;9.75;;;4.20;;
43835;SDS011;39345;43.964;25.340;2023-11-21T07:00:05;11.27;;;5.80;;
43835;SDS011;39345;43.964;25.340;2023-11-21T07:02:35;9.30;;;5.07;;
43835;SDS011;39345;43.964;25.340;2023-11-21T07:05:03;9.38;;;5.38;;
43835;SDS011;39345;43.964;25.340;2023-11-21T07:07:32;9.38;;;5.53;;
43835;SDS011;39345;43.964;25.340;2023-11-21T07:10:02;9.40;;;4.72;;
43835;SDS011;39345;43.964;25.340;2023-11-21T07:12:30;8.00;;;3.78;;
43835;SDS011;39345;43.964;25.340;2023-11-21T07:14:58;6.65;;;3.92;;
43835;SDS011;39345;43.964;25.340;2023-11-21T07:17:26;6.65;;;4.78;;
43835;SDS011;39345;43.964;25.340;2023-11-21T08:44:39;12.75;;;6.88;;
43835;SDS011;39345;43.964;25.340;2023-11-21T08:47:06;18.35;;;6.47;;
43835;SDS011;39345;43.964;25.340;2023-11-21T08:49:34;12.57;;;6.90;;
43835;SDS011;39345;43.964;25.340;2023-11-21T08:52:02;15.18;;;5.72;;
43835;SDS011;39345;43.964;25.340;2023-11-21T08:54:31;10.55;;;5.80;;
43835;SDS011;39345;43.964;25.340;2023-11-21T08:57:00;14.35;;;5.60;;
43835;SDS011;39345;43.964;25.340;2023-11-21T08:59:28;9.20;;;4.78;;
43835;SDS011;39345;43.964;25.340;2023-11-21T09:01:55;9.20;;;4.47;;
43835;SDS011;39345;43.964;25.340;2023-11-21T09:04:23;10.88;;;5.28;;
43835;SDS011;39345;43.964;25.340;2023-11-21T09:06:50;9.48;;;3.53;;
43835;SDS011;39345;43.964;25.340;2023-11-21T09:09:18;10.02;;;4.88;;
43835;SDS011;39345;43.964;25.340;2023-11-21T09:11:46;7.65;;;2.30;;
43835;SDS011;39345;43.964;25.340;2023-11-21T09:14:15;7.95;;;2.40;;
43835;SDS011;39345;43.964;25.340;2023-11-21T09:16:44;6.88;;;2.28;;
43835;SDS011;39345;43.964;25.340;2023-11-21T09:19:12;6.65;;;2.50;;
43835;SDS011;39345;43.964;25.340;2023-11-21T09:21:40;8.80;;;3.15;;
43835;SDS011;39345;43.964;25.340;2023-11-21T09:24:08;8.50;;;3.20;;
43835;SDS011;39345;43.964;25.340;2023-11-21T09:26:35;3.97;;;2.63;;
43835;SDS011;39345;43.964;25.340;2023-11-21T09:29:03;8.52;;;3.10;;
43835;SDS011;39345;43.964;25.340;2023-11-21T09:31:30;5.25;;;2.80;;
43835;SDS011;39345;43.964;25.340;2023-11-21T09:34:00;3.72;;;2.38;;
43835;SDS011;39345;43.964;25.340;2023-11-21T09:36:28;5.35;;;2.80;;
43835;SDS011;39345;43.964;25.340;2023-11-21T09:38:57;6.05;;;2.55;;
43835;SDS011;39345;43.964;25.340;2023-11-21T09:41:32;8.13;;;3.10;;
43835;SDS011;39345;43.964;25.340;2023-11-21T09:44:02;5.30;;;2.70;;
43835;SDS011;39345;43.964;25.340;2023-11-21T09:46:29;7.25;;;2.50;;
43835;SDS011;39345;43.964;25.340;2023-11-21T09:48:57;5.05;;;2.35;;
43835;SDS011;39345;43.964;25.340;2023-11-21T09:51:27;4.05;;;2.28;;
43835;SDS011;39345;43.964;25.340;2023-11-21T09:53:59;4.00;;;2.05;;
43835;SDS011;39345;43.964;25.340;2023-11-21T09:56:28;3.17;;;1.98;;
43835;SDS011;39345;43.964;25.340;2023-11-21T09:58:56;5.32;;;2.58;;
43835;SDS011;39345;43.964;25.340;2023-11-21T10:01:25;3.30;;;1.67;;
43835;SDS011;39345;43.964;25.340;2023-11-21T10:03:53;2.95;;;1.90;;
43835;SDS011;39345;43.964;25.340;2023-11-21T10:06:21;5.20;;;1.77;;
43835;SDS011;39345;43.964;25.340;2023-11-21T10:08:55;5.65;;;2.50;;
43835;SDS011;39345;43.964;25.340;2023-11-21T10:11:23;5.68;;;2.20;;
43835;SDS011;39345;43.964;25.340;2023-11-21T10:13:52;6.88;;;2.20;;
43835;SDS011;39345;43.964;25.340;2023-11-21T10:16:20;4.65;;;2.67;;
43835;SDS011;39345;43.964;25.340;2023-11-21T10:18:50;7.32;;;2.80;;
43835;SDS011;39345;43.964;25.340;2023-11-21T10:21:39;3.60;;;1.70;;
43835;SDS011;39345;43.964;25.340;2023-11-21T10:24:07;4.32;;;2.45;;
43835;SDS011;39345;43.964;25.340;2023-11-21T10:26:34;7.05;;;1.95;;
43835;SDS011;39345;43.964;25.340;2023-11-21T10:29:16;3.25;;;1.92;;
43835;SDS011;39345;43.964;25.340;2023-11-21T10:31:45;3.03;;;1.40;;
43835;SDS011;39345;43.964;25.340;2023-11-21T10:34:16;5.03;;;2.00;;
43835;SDS011;39345;43.964;25.340;2023-11-21T10:36:44;4.05;;;1.60;;
43835;SDS011;39345;43.964;25.340;2023-11-21T10:39:19;2.25;;;1.30;;
43835;SDS011;39345;43.964;25.340;2023-11-21T10:41:47;3.33;;;1.75;;
43835;SDS011;39345;43.964;25.340;2023-11-21T10:44:16;2.65;;;1.50;;
43835;SDS011;39345;43.964;25.340;2023-11-21T10:46:48;3.70;;;1.83;;
43835;SDS011;39345;43.964;25.340;2023-11-21T10:49:18;5.05;;;2.03;;
43835;SDS011;39345;43.964;25.340;2023-11-21T10:51:46;4.68;;;2.10;;
43835;SDS011;39345;43.964;25.340;2023-11-21T10:54:19;3.03;;;1.67;;
43835;SDS011;39345;43.964;25.340;2023-11-21T10:56:50;3.35;;;1.80;;
43835;SDS011;39345;43.964;25.340;2023-11-21T10:59:18;3.38;;;1.90;;
43835;SDS011;39345;43.964;25.340;2023-11-21T11:01:51;4.28;;;1.95;;
43835;SDS011;39345;43.964;25.340;2023-11-21T11:04:19;2.28;;;1.88;;
43835;SDS011;39345;43.964;25.340;2023-11-21T11:06:50;8.00;;;3.63;;
43835;SDS011;39345;43.964;25.340;2023-11-21T11:09:18;6.10;;;2.60;;
43835;SDS011;39345;43.964;25.340;2023-11-21T11:11:46;3.22;;;2.30;;
43835;SDS011;39345;43.964;25.340;2023-11-21T11:14:13;3.65;;;1.90;;
43835;SDS011;39345;43.964;25.340;2023-11-21T11:16:42;4.28;;;1.80;;
43835;SDS011;39345;43.964;25.340;2023-11-21T11:19:10;2.67;;;1.83;;
43835;SDS011;39345;43.964;25.340;2023-11-21T11:32:22;4.80;;;1.95;;
43835;SDS011;39345;43.964;25.340;2023-11-21T11:35:04;4.10;;;2.03;;
43835;SDS011;39345;43.964;25.340;2023-11-21T11:37:34;5.15;;;2.40;;
43835;SDS011;39345;43.964;25.340;2023-11-21T11:40:04;5.72;;;1.77;;
43835;SDS011;39345;43.964;25.340;2023-11-21T11:42:32;5.45;;;2.40;;
43835;SDS011;39345;43.964;25.340;2023-11-21T11:45:00;3.53;;;1.77;;
43835;SDS011;39345;43.964;25.340;2023-11-21T11:47:31;4.57;;;2.13;;
43835;SDS011;39345;43.964;25.340;2023-11-21T11:50:05;4.32;;;2.00;;
43835;SDS011;39345;43.964;25.340;2023-11-21T11:53:12;9.65;;;3.55;;
43835;SDS011;39345;43.964;25.340;2023-11-21T11:55:39;9.35;;;4.60;;
43835;SDS011;39345;43.964;25.340;2023-11-21T11:58:07;7.72;;;4.28;;
43835;SDS011;39345;43.964;25.340;2023-11-21T12:00:36;5.68;;;2.45;;
43835;SDS011;39345;43.964;25.340;2023-11-21T12:03:08;5.30;;;3.00;;
43835;SDS011;39345;43.964;25.340;2023-11-21T12:05:36;5.03;;;3.08;;
43835;SDS011;39345;43.964;25.340;2023-11-21T12:08:09;6.60;;;2.80;;
43835;SDS011;39345;43.964;25.340;2023-11-21T12:10:37;6.35;;;3.17;;
43835;SDS011;39345;43.964;25.340;2023-11-21T12:13:06;5.15;;;2.55;;
43835;SDS011;39345;43.964;25.340;2023-11-21T12:15:34;3.38;;;2.42;;
43835;SDS011;39345;43.964;25.340;2023-11-21T12:18:03;6.40;;;2.53;;
43835;SDS011;39345;43.964;25.340;2023-11-21T12:20:32;6.20;;;3.20;;
43835;SDS011;39345;43.964;25.340;2023-11-21T12:23:05;10.32;;;5.80;;
43835;SDS011;39345;43.964;25.340;2023-11-21T12:25:33;9.35;;;5.68;;
43835;SDS011;39345;43.964;25.340;2023-11-21T12:28:01;9.40;;;4.55;;
43835;SDS011;39345;43.964;25.340;2023-11-21T12:30:30;6.82;;;4.00;;
43835;SDS011;39345;43.964;25.340;2023-11-21T12:32:58;2.92;;;2.00;;
43835;SDS011;39345;43.964;25.340;2023-11-21T12:35:28;8.73;;;4.00;;
43835;SDS011;39345;43.964;25.340;2023-11-21T12:37:56;5.63;;;3.25;;
43835;SDS011;39345;43.964;25.340;2023-11-21T12:40:25;7.00;;;3.78;;
43835;SDS011;39345;43.964;25.340;2023-11-21T12:42:56;8.63;;;4.43;;
43835;SDS011;39345;43.964;25.340;2023-11-21T12:45:26;8.90;;;4.50;;
43835;SDS011;39345;43.964;25.340;2023-11-21T12:48:04;19.00;;;10.02;;
43835;SDS011;39345;43.964;25.340;2023-11-21T12:50:38;11.95;;;4.22;;
43835;SDS011;39345;43.964;25.340;2023-11-21T12:53:10;11.30;;;7.10;;
43835;SDS011;39345;43.964;25.340;2023-11-21T12:55:43;14.85;;;7.57;;
43835;SDS011;39345;43.964;25.340;2023-11-21T12:58:17;10.95;;;5.70;;
43835;SDS011;39345;43.964;25.340;2023-11-21T13:00:47;18.75;;;8.80;;
43835;SDS011;39345;43.964;25.340;2023-11-21T13:03:15;11.02;;;7.35;;
43835;SDS011;39345;43.964;25.340;2023-11-21T13:05:47;12.80;;;6.68;;
43835;SDS011;39345;43.964;25.340;2023-11-21T13:08:19;10.07;;;6.22;;
43835;SDS011;39345;43.964;25.340;2023-11-21T13:10:50;16.20;;;9.30;;
43835;SDS011;39345;43.964;25.340;2023-11-21T13:13:18;10.77;;;5.93;;
43835;SDS011;39345;43.964;25.340;2023-11-21T13:15:51;12.27;;;7.05;;
43835;SDS011;39345;43.964;25.340;2023-11-21T13:18:19;9.55;;;5.65;;
43835;SDS011;39345;43.964;25.340;2023-11-21T13:20:48;12.02;;;6.50;;
43835;SDS011;39345;43.964;25.340;2023-11-21T13:23:16;10.57;;;6.00;;
43835;SDS011;39345;43.964;25.340;2023-11-21T13:25:44;12.07;;;8.68;;
43835;SDS011;39345;43.964;25.340;2023-11-21T13:28:23;24.38;;;13.93;;
43835;SDS011;39345;43.964;25.340;2023-11-21T13:30:58;36.05;;;19.50;;
43835;SDS011;39345;43.964;25.340;2023-11-21T13:33:37;53.63;;;32.83;;
43835;SDS011;39345;43.964;25.340;2023-11-21T13:36:05;36.75;;;22.67;;
43835;SDS011;39345;43.964;25.340;2023-11-21T13:38:37;25.70;;;16.33;;
43835;SDS011;39345;43.964;25.340;2023-11-21T13:41:09;9.57;;;6.72;;
43835;SDS011;39345;43.964;25.340;2023-11-21T13:43:39;17.58;;;8.73;;
43835;SDS011;39345;43.964;25.340;2023-11-21T13:46:10;14.70;;;6.43;;
43835;SDS011;39345;43.964;25.340;2023-11-21T13:48:44;10.82;;;5.05;;
43835;SDS011;39345;43.964;25.340;2023-11-21T13:51:18;12.75;;;6.50;;
43835;SDS011;39345;43.964;25.340;2023-11-21T13:53:47;8.55;;;5.65;;
43835;SDS011;39345;43.964;25.340;2023-11-21T13:56:19;12.73;;;6.63;;
43835;SDS011;39345;43.964;25.340;2023-11-21T13:58:51;8.52;;;5.45;;
43835;SDS011;39345;43.964;25.340;2023-11-21T14:01:23;11.38;;;5.85;;
43835;SDS011;39345;43.964;25.340;2023-11-21T14:03:51;13.40;;;6.20;;
43835;SDS011;39345;43.964;25.340;2023-11-21T14:06:24;12.10;;;7.05;;
43835;SDS011;39345;43.964;25.340;2023-11-21T14:08:59;16.52;;;8.48;;
43835;SDS011;39345;43.964;25.340;2023-11-21T14:11:34;22.52;;;9.77;;
43835;SDS011;39345;43.964;25.340;2023-11-21T14:14:13;18.10;;;9.15;;
43835;SDS011;39345;43.964;25.340;2023-11-21T14:16:41;15.20;;;7.00;;
43835;SDS011;39345;43.964;25.340;2023-11-21T14:19:08;11.27;;;5.80;;
43835;SDS011;39345;43.964;25.340;2023-11-21T14:21:45;11.52;;;7.22;;
43835;SDS011;39345;43.964;25.340;2023-11-21T14:24:13;19.27;;;11.18;;
43835;SDS011;39345;43.964;25.340;2023-11-21T14:26:42;34.22;;;22.88;;
43835;SDS011;39345;43.964;25.340;2023-11-21T14:29:09;25.48;;;14.63;;
43835;SDS011;39345;43.964;25.340;2023-11-21T14:31:40;29.35;;;14.35;;
43835;SDS011;39345;43.964;25.340;2023-11-21T14:34:08;26.35;;;16.60;;
43835;SDS011;39345;43.964;25.340;2023-11-21T14:36:37;25.83;;;15.02;;
43835;SDS011;39345;43.964;25.340;2023-11-21T14:39:05;27.77;;;16.30;;
43835;SDS011;39345;43.964;25.340;2023-11-21T14:41:35;53.63;;;35.95;;
43835;SDS011;39345;43.964;25.340;2023-11-21T14:44:05;29.67;;;20.50;;
43835;SDS011;39345;43.964;25.340;2023-11-21T14:46:38;25.60;;;13.45;;
43835;SDS011;39345;43.964;25.340;2023-11-21T14:49:07;25.48;;;13.88;;
43835;SDS011;39345;43.964;25.340;2023-11-21T14:51:49;19.80;;;10.88;;
43835;SDS011;39345;43.964;25.340;2023-11-21T14:54:30;22.05;;;13.40;;
43835;SDS011;39345;43.964;25.340;2023-11-21T14:57:09;28.33;;;12.95;;
43835;SDS011;39345;43.964;25.340;2023-11-21T14:59:46;28.88;;;16.02;;
43835;SDS011;39345;43.964;25.340;2023-11-21T15:02:16;34.85;;;18.23;;
43835;SDS011;39345;43.964;25.340;2023-11-21T15:04:48;36.90;;;19.00;;
43835;SDS011;39345;43.964;25.340;2023-11-21T15:07:19;42.63;;;26.42;;
43835;SDS011;39345;43.964;25.340;2023-11-21T15:09:47;31.73;;;19.45;;
43835;SDS011;39345;43.964;25.340;2023-11-21T15:12:16;38.05;;;32.63;;
43835;SDS011;39345;43.964;25.340;2023-11-21T15:14:46;26.95;;;17.48;;
43835;SDS011;39345;43.964;25.340;2023-11-21T15:17:18;35.10;;;19.02;;
43835;SDS011;39345;43.964;25.340;2023-11-21T15:19:57;29.33;;;15.80;;
43835;SDS011;39345;43.964;25.340;2023-11-21T15:22:26;21.13;;;11.95;;
43835;SDS011;39345;43.964;25.340;2023-11-21T15:24:55;18.77;;;9.45;;
43835;SDS011;39345;43.964;25.340;2023-11-21T15:27:24;19.33;;;10.75;;
43835;SDS011;39345;43.964;25.340;2023-11-21T15:29:53;20.80;;;11.80;;
43835;SDS011;39345;43.964;25.340;2023-11-21T15:32:21;17.33;;;9.55;;
43835;SDS011;39345;43.964;25.340;2023-11-21T15:34:48;20.80;;;11.73;;
43835;SDS011;39345;43.964;25.340;2023-11-21T15:37:16;16.35;;;8.75;;
43835;SDS011;39345;43.964;25.340;2023-11-21T15:39:43;17.95;;;9.43;;
43835;SDS011;39345;43.964;25.340;2023-11-21T15:42:12;18.00;;;8.55;;
43835;SDS011;39345;43.964;25.340;2023-11-21T15:44:40;17.20;;;10.10;;
43835;SDS011;39345;43.964;25.340;2023-11-21T15:47:07;22.95;;;11.10;;
43835;SDS011;39345;43.964;25.340;2023-11-21T15:49:35;20.92;;;9.68;;
43835;SDS011;39345;43.964;25.340;2023-11-21T15:52:04;13.15;;;8.05;;
43835;SDS011;39345;43.964;25.340;2023-11-21T15:54:33;17.70;;;9.82;;
43835;SDS011;39345;43.964;25.340;2023-11-21T15:57:02;12.30;;;7.53;;
43835;SDS011;39345;43.964;25.340;2023-11-21T15:59:31;19.33;;;9.35;;
43835;SDS011;39345;43.964;25.340;2023-11-21T16:02:00;15.85;;;8.40;;
43835;SDS011;39345;43.964;25.340;2023-11-21T16:04:32;15.38;;;7.65;;
43835;SDS011;39345;43.964;25.340;2023-11-21T16:06:59;19.02;;;8.82;;
43835;SDS011;39345;43.964;25.340;2023-11-21T16:09:28;15.80;;;7.45;;
43835;SDS011;39345;43.964;25.340;2023-11-21T16:12:01;17.60;;;7.85;;
43835;SDS011;39345;43.964;25.340;2023-11-21T16:14:29;18.95;;;8.20;;
43835;SDS011;39345;43.964;25.340;2023-11-21T16:17:23;14.90;;;7.45;;